Pagrindinis puslapis
METAR-TAF:

METAR-TAF

Oro uostai :

Antakija, Turkija

platuma: 36-21-46N, ilguma: 36-16-56E, Aukštis: 1950 m

Dabartinis oras

Ataskaita buvo paskelbta 58 minutes, ne 05:50 UTC
Vėjas 11 kt iš Pietvakarių
Temperatūra 16°C
Drėgmė 68%
Slėgis 1009 hPa
Matomumas 10 km arba daugiau
Išsisklaidę debesys ne aukštis 3500 ft

METAR: LTDA 100550Z 23011KT 9999 SCT035 16/10 Q1009 TEMPO 24015G25KT TS

Laikas: 09:48 (06:48 UTC)

Prognozė

Ataskaita buvo paskelbta 2 valandos ir 8 minutes, ne 04:40 UTC
Prognozė galioja nuo 10 metu 06 UTC su 10 metu 15 UTC
Vėjas 9 kt iš Vakarų/Pietvakarių
Matomumas 10 km arba daugiau
Išsisklaidę debesys ne aukštis 3500 ft
Laikinai
nuo 10 metu 06 UTC su 10 metu 10 UTC
Vėjas 15 kt iš Vakarų/Pietvakarių su gūsio iki 25 kt
Mažai debesys ne aukštis 2500 ft, Liūtiniai kamuoliniai debesys.
Su prošvaistėmis ne aukštis 3000 ft
perkūnija

TAF: LTDA 100440Z 1006/1015 24009KT 9999 SCT035 TEMPO 1006/1010 24015G25KT TS FEW025CB BKN030

Orai ataskaitas ir orų prognozės (METAR, TAF).

turimą stotys yra geltonos ir raudonos taškus žemėlapyje.

Perkelti pele per norėdami pamatyti stoties vardą.

Tada spustelėkite, norėdami matyti oro stebėjimo ir prognozės.

Norėdami pakeisti žemėlapį: spustelėkite ant žalios mygtukų su juodo kryžiaus žemyn,; žalią mygtuką su brūkšneliu, jei norite nutolinti; arba žalių rodyklių gretimoms žemėlapius.


METAR-TAF: